ASA721 KPDX-KSAN
Flight info
| Callsign | ASA721 |
|---|---|
| Flight time | 2h 6m |
| Altitude | 31000 |
| Route | HRMNS6 HYJOE BORDY COLOM PASKE HUULK COMIX2 |
| Aircraft | B739/M-SDE2E3FGHIRWXY/LB1 |
Departure
| Time | 2026-04-24 12:48 |
|---|---|
| Airport | Portland International Airport (KPDX) |
Arrival
| Time | 2026-04-24 14:54 |
|---|---|
| Airport | San Diego International Airport (KSAN) |
| Time | Latitude | Longitude | Altitude | Speed | Heading |
|---|---|---|---|---|---|
| 2026-04-24 12:06 | 45.58920 | -122.59848 | 28 ft | 0 kts | 19° |
| 2026-04-24 12:35 | 45.58905 | -122.59855 | 28 ft | 4 kts | 20° |
| 2026-04-24 12:36 | 45.58881 | -122.59870 | 27 ft | 2 kts | 27° |
| 2026-04-24 12:36 | 45.58862 | -122.59887 | 27 ft | 4 kts | 60° |
| 2026-04-24 12:36 | 45.58859 | -122.59920 | 27 ft | 4 kts | 111° |
| 2026-04-24 12:36 | 45.58870 | -122.59952 | 27 ft | 4 kts | 118° |
| 2026-04-24 12:37 | 45.58883 | -122.59986 | 27 ft | 4 kts | 118° |
| 2026-04-24 12:37 | 45.58895 | -122.60014 | 27 ft | 1 kts | 118° |
| 2026-04-24 12:41 | 45.58891 | -122.60004 | 27 ft | 3 kts | 118° |
| 2026-04-24 12:41 | 45.58871 | -122.59964 | 27 ft | 7 kts | 137° |
| 2026-04-24 12:41 | 45.58814 | -122.59933 | 28 ft | 11 kts | 164° |
| 2026-04-24 12:42 | 45.58755 | -122.59872 | 28 ft | 11 kts | 115° |
| 2026-04-24 12:42 | 45.58720 | -122.59780 | 28 ft | 10 kts | 119° |
| 2026-04-24 12:42 | 45.58685 | -122.59690 | 28 ft | 10 kts | 119° |
| 2026-04-24 12:42 | 45.58651 | -122.59604 | 28 ft | 10 kts | 119° |
| 2026-04-24 12:43 | 45.58618 | -122.59519 | 28 ft | 10 kts | 119° |
| 2026-04-24 12:43 | 45.58586 | -122.59438 | 28 ft | 9 kts | 119° |
| 2026-04-24 12:43 | 45.58555 | -122.59358 | 27 ft | 9 kts | 119° |
| 2026-04-24 12:43 | 45.58524 | -122.59279 | 27 ft | 9 kts | 119° |
| 2026-04-24 12:44 | 45.58493 | -122.59199 | 27 ft | 10 kts | 120° |
| 2026-04-24 12:44 | 45.58453 | -122.59099 | 27 ft | 13 kts | 119° |
| 2026-04-24 12:44 | 45.58404 | -122.58974 | 27 ft | 16 kts | 119° |
| 2026-04-24 12:44 | 45.58351 | -122.58835 | 28 ft | 16 kts | 118° |
| 2026-04-24 12:45 | 45.58300 | -122.58702 | 28 ft | 15 kts | 119° |
| 2026-04-24 12:45 | 45.58249 | -122.58574 | 28 ft | 15 kts | 120° |
| 2026-04-24 12:45 | 45.58202 | -122.58453 | 28 ft | 11 kts | 119° |
| 2026-04-24 12:45 | 45.58155 | -122.58368 | 27 ft | 11 kts | 152° |
| 2026-04-24 12:46 | 45.58088 | -122.58391 | 27 ft | 11 kts | 229° |
| 2026-04-24 12:46 | 45.58088 | -122.58478 | 28 ft | 7 kts | 296° |
| 2026-04-24 12:46 | 45.58095 | -122.58495 | 28 ft | 0 kts | 298° |
| 2026-04-24 12:47 | 45.58096 | -122.58497 | 28 ft | 3 kts | 299° |
| 2026-04-24 12:47 | 45.58139 | -122.58609 | 29 ft | 36 kts | 299° |
| 2026-04-24 12:47 | 45.58375 | -122.59213 | 27 ft | 102 kts | 299° |
| 2026-04-24 12:48 | 45.58808 | -122.60327 | 26 ft | 153 kts | 301° |
| 2026-04-24 12:48 | 45.59383 | -122.61830 | 111 ft | 185 kts | 300° |
| 2026-04-24 12:48 | 45.60007 | -122.63399 | 847 ft | 178 kts | 300° |
| 2026-04-24 12:48 | 45.60612 | -122.64952 | 1483 ft | 182 kts | 303° |
| 2026-04-24 12:49 | 45.61316 | -122.66554 | 1787 ft | 201 kts | 306° |
| 2026-04-24 12:49 | 45.62144 | -122.68284 | 1987 ft | 221 kts | 304° |
| 2026-04-24 12:49 | 45.62967 | -122.70238 | 2273 ft | 236 kts | 302° |
| 2026-04-24 12:49 | 45.63817 | -122.72320 | 2550 ft | 253 kts | 302° |
| 2026-04-24 12:50 | 45.64725 | -122.74560 | 2954 ft | 266 kts | 301° |
| 2026-04-24 12:50 | 45.65653 | -122.76854 | 3576 ft | 273 kts | 302° |
| 2026-04-24 12:50 | 45.66606 | -122.79218 | 4333 ft | 275 kts | 300° |
| 2026-04-24 12:50 | 45.67147 | -122.81867 | 5047 ft | 279 kts | 268° |
| 2026-04-24 12:51 | 45.66797 | -122.84542 | 5840 ft | 277 kts | 253° |
| 2026-04-24 12:51 | 45.66225 | -122.87188 | 6639 ft | 277 kts | 254° |
| 2026-04-24 12:51 | 45.65519 | -122.89769 | 7294 ft | 284 kts | 238° |
| 2026-04-24 12:51 | 45.64080 | -122.91717 | 7896 ft | 291 kts | 208° |
| 2026-04-24 12:52 | 45.62121 | -122.92456 | 8492 ft | 297 kts | 178° |
| 2026-04-24 12:52 | 45.60093 | -122.91911 | 9096 ft | 300 kts | 161° |
| 2026-04-24 12:52 | 45.58077 | -122.91030 | 9686 ft | 306 kts | 161° |
| 2026-04-24 12:52 | 45.56714 | -122.90431 | 10087 ft | 310 kts | 161° |
| 2026-04-24 12:53 | 45.54598 | -122.89510 | 10334 ft | 328 kts | 160° |
| 2026-04-24 12:53 | 45.52456 | -122.88144 | 10491 ft | 346 kts | 148° |
| 2026-04-24 12:53 | 45.49640 | -122.85706 | 10763 ft | 367 kts | 146° |
| 2026-04-24 12:53 | 45.47453 | -122.83743 | 11215 ft | 375 kts | 146° |
| 2026-04-24 12:54 | 45.45950 | -122.82401 | 11599 ft | 378 kts | 146° |
| 2026-04-24 12:54 | 45.43704 | -122.80417 | 12202 ft | 382 kts | 147° |
| 2026-04-24 12:54 | 45.41421 | -122.78424 | 12786 ft | 387 kts | 147° |
| 2026-04-24 12:54 | 45.39101 | -122.76420 | 13364 ft | 393 kts | 148° |
| 2026-04-24 12:55 | 45.36748 | -122.74401 | 13970 ft | 397 kts | 148° |
| 2026-04-24 12:55 | 45.34365 | -122.72364 | 14537 ft | 402 kts | 148° |
| 2026-04-24 12:55 | 45.31993 | -122.70342 | 15139 ft | 404 kts | 148° |
| 2026-04-24 12:55 | 45.29577 | -122.68268 | 15756 ft | 407 kts | 148° |
| 2026-04-24 12:56 | 45.27139 | -122.66183 | 16377 ft | 410 kts | 148° |
| 2026-04-24 12:56 | 45.24678 | -122.64089 | 16971 ft | 414 kts | 148° |
| 2026-04-24 12:56 | 45.22191 | -122.61980 | 17531 ft | 418 kts | 149° |
| 2026-04-24 12:56 | 45.19679 | -122.59853 | 18100 ft | 422 kts | 149° |
| 2026-04-24 12:57 | 45.17144 | -122.57709 | 18634 ft | 426 kts | 149° |
| 2026-04-24 12:57 | 45.14584 | -122.55545 | 19150 ft | 429 kts | 149° |
| 2026-04-24 12:57 | 45.12010 | -122.53372 | 19679 ft | 431 kts | 149° |
| 2026-04-24 12:57 | 45.09451 | -122.51213 | 20202 ft | 434 kts | 149° |
| 2026-04-24 12:58 | 45.06846 | -122.49018 | 20712 ft | 437 kts | 149° |
| 2026-04-24 12:58 | 45.04223 | -122.46811 | 21218 ft | 440 kts | 149° |
| 2026-04-24 12:58 | 45.01574 | -122.44585 | 21720 ft | 443 kts | 149° |
| 2026-04-24 12:58 | 44.98903 | -122.42342 | 22231 ft | 447 kts | 149° |
| 2026-04-24 12:59 | 44.96219 | -122.40087 | 22713 ft | 450 kts | 149° |
| 2026-04-24 12:59 | 44.93432 | -122.38044 | 23167 ft | 453 kts | 159° |
| 2026-04-24 12:59 | 44.90497 | -122.36570 | 23677 ft | 455 kts | 162° |
| 2026-04-24 12:59 | 44.87468 | -122.35210 | 24088 ft | 458 kts | 163° |
| 2026-04-24 13:00 | 44.84416 | -122.33882 | 24481 ft | 460 kts | 163° |
| 2026-04-24 13:00 | 44.81344 | -122.32536 | 24882 ft | 463 kts | 163° |
| 2026-04-24 13:00 | 44.78262 | -122.31160 | 25271 ft | 466 kts | 163° |
| 2026-04-24 13:00 | 44.75158 | -122.29750 | 25657 ft | 468 kts | 162° |
| 2026-04-24 13:01 | 44.72047 | -122.28319 | 26051 ft | 470 kts | 162° |
| 2026-04-24 13:01 | 44.68973 | -122.26907 | 26511 ft | 471 kts | 162° |
| 2026-04-24 13:01 | 44.65846 | -122.25464 | 26797 ft | 474 kts | 162° |
| 2026-04-24 13:01 | 44.62717 | -122.24000 | 27341 ft | 472 kts | 162° |
| 2026-04-24 13:02 | 44.59594 | -122.22541 | 27760 ft | 474 kts | 161° |
| 2026-04-24 13:02 | 44.56437 | -122.21072 | 28016 ft | 479 kts | 162° |
| 2026-04-24 13:02 | 44.53261 | -122.19604 | 28320 ft | 482 kts | 162° |
| 2026-04-24 13:02 | 44.50094 | -122.18145 | 28663 ft | 484 kts | 162° |
| 2026-04-24 13:03 | 44.46893 | -122.16673 | 29121 ft | 484 kts | 162° |
| 2026-04-24 13:03 | 44.43706 | -122.15209 | 29673 ft | 481 kts | 162° |
| 2026-04-24 13:03 | 44.40532 | -122.13749 | 30194 ft | 480 kts | 162° |
| 2026-04-24 13:03 | 44.37363 | -122.12292 | 30560 ft | 480 kts | 162° |
| 2026-04-24 13:04 | 44.34179 | -122.10830 | 30854 ft | 481 kts | 162° |
| 2026-04-24 13:04 | 44.30986 | -122.09367 | 31135 ft | 482 kts | 162° |
| 2026-04-24 13:04 | 44.27783 | -122.07901 | 31104 ft | 486 kts | 162° |
| 2026-04-24 13:05 | 44.21370 | -122.04975 | 31123 ft | 482 kts | 162° |
| 2026-04-24 13:05 | 44.15003 | -122.02064 | 31120 ft | 480 kts | 162° |
| 2026-04-24 13:06 | 44.08652 | -121.99182 | 31114 ft | 479 kts | 162° |
| 2026-04-24 13:06 | 44.02350 | -121.96337 | 31099 ft | 478 kts | 162° |
| 2026-04-24 13:07 | 43.96011 | -121.93475 | 31100 ft | 477 kts | 162° |
| 2026-04-24 13:07 | 43.89734 | -121.90647 | 31109 ft | 476 kts | 162° |
| 2026-04-24 13:08 | 43.83384 | -121.87909 | 31095 ft | 476 kts | 166° |
| 2026-04-24 13:08 | 43.76961 | -121.85974 | 31116 ft | 475 kts | 169° |
| 2026-04-24 13:09 | 43.67180 | -121.83357 | 31106 ft | 476 kts | 169° |
| 2026-04-24 13:09 | 43.60692 | -121.81534 | 31093 ft | 477 kts | 169° |
| 2026-04-24 13:10 | 43.54212 | -121.79669 | 31097 ft | 477 kts | 169° |
| 2026-04-24 13:10 | 43.47720 | -121.77796 | 31105 ft | 477 kts | 169° |
| 2026-04-24 13:11 | 43.41240 | -121.75933 | 31096 ft | 476 kts | 169° |
| 2026-04-24 13:11 | 43.34769 | -121.74079 | 31102 ft | 475 kts | 169° |
| 2026-04-24 13:12 | 43.28276 | -121.72223 | 31090 ft | 475 kts | 169° |
| 2026-04-24 13:12 | 43.21820 | -121.70382 | 31084 ft | 474 kts | 169° |
| 2026-04-24 13:13 | 43.15368 | -121.68545 | 31061 ft | 472 kts | 169° |
| 2026-04-24 13:13 | 43.08971 | -121.66730 | 31072 ft | 470 kts | 169° |
| 2026-04-24 13:14 | 43.02571 | -121.64916 | 31074 ft | 468 kts | 169° |
| 2026-04-24 13:14 | 42.96196 | -121.63113 | 31076 ft | 466 kts | 169° |
| 2026-04-24 13:15 | 42.89849 | -121.61322 | 31076 ft | 465 kts | 169° |
| 2026-04-24 13:15 | 42.83557 | -121.59551 | 31074 ft | 464 kts | 169° |
| 2026-04-24 13:16 | 42.77223 | -121.57771 | 31076 ft | 464 kts | 169° |
| 2026-04-24 13:16 | 42.70897 | -121.55997 | 31060 ft | 463 kts | 168° |
| 2026-04-24 13:17 | 42.64588 | -121.54233 | 31059 ft | 462 kts | 168° |
| 2026-04-24 13:17 | 42.58330 | -121.52485 | 31066 ft | 461 kts | 169° |
| 2026-04-24 13:18 | 42.52062 | -121.50739 | 31073 ft | 459 kts | 169° |
| 2026-04-24 13:18 | 42.45802 | -121.48998 | 31073 ft | 459 kts | 169° |
| 2026-04-24 13:19 | 42.39554 | -121.47264 | 31090 ft | 458 kts | 169° |
| 2026-04-24 13:19 | 42.33299 | -121.45532 | 31082 ft | 458 kts | 169° |
| 2026-04-24 13:20 | 42.27086 | -121.43814 | 31068 ft | 458 kts | 169° |
| 2026-04-24 13:20 | 42.20842 | -121.42092 | 31085 ft | 457 kts | 169° |
| 2026-04-24 13:21 | 42.14608 | -121.40377 | 31072 ft | 457 kts | 169° |
| 2026-04-24 13:21 | 42.08378 | -121.38666 | 31072 ft | 457 kts | 169° |
| 2026-04-24 13:22 | 42.02162 | -121.36962 | 31072 ft | 457 kts | 169° |
| 2026-04-24 13:22 | 41.95907 | -121.35251 | 31078 ft | 456 kts | 169° |
| 2026-04-24 13:23 | 41.89717 | -121.33561 | 31082 ft | 456 kts | 169° |
| 2026-04-24 13:23 | 41.83478 | -121.31860 | 31076 ft | 455 kts | 169° |
| 2026-04-24 13:24 | 41.77272 | -121.30173 | 31071 ft | 454 kts | 169° |
| 2026-04-24 13:24 | 41.71079 | -121.28493 | 31070 ft | 453 kts | 169° |
| 2026-04-24 13:25 | 41.64945 | -121.26831 | 31076 ft | 452 kts | 169° |
| 2026-04-24 13:25 | 41.58787 | -121.25166 | 31089 ft | 451 kts | 169° |
| 2026-04-24 13:26 | 41.52627 | -121.23504 | 31079 ft | 450 kts | 169° |
| 2026-04-24 13:26 | 41.46520 | -121.21860 | 31078 ft | 450 kts | 170° |
| 2026-04-24 13:27 | 41.40368 | -121.20210 | 31093 ft | 451 kts | 171° |
| 2026-04-24 13:27 | 41.34193 | -121.18553 | 31092 ft | 453 kts | 171° |
| 2026-04-24 13:28 | 41.27989 | -121.16894 | 31083 ft | 455 kts | 171° |
| 2026-04-24 13:28 | 41.21765 | -121.15234 | 31062 ft | 457 kts | 171° |
| 2026-04-24 13:29 | 41.15558 | -121.13582 | 31053 ft | 458 kts | 171° |
| 2026-04-24 13:29 | 41.09288 | -121.11920 | 31045 ft | 459 kts | 172° |
| 2026-04-24 13:30 | 41.03007 | -121.10256 | 31050 ft | 460 kts | 172° |
| 2026-04-24 13:30 | 40.96700 | -121.08934 | 31070 ft | 456 kts | 178° |
| 2026-04-24 13:31 | 40.90415 | -121.08282 | 31031 ft | 455 kts | 180° |
| 2026-04-24 13:31 | 40.84095 | -121.07691 | 31016 ft | 455 kts | 180° |
| 2026-04-24 13:32 | 40.77774 | -121.07056 | 30997 ft | 455 kts | 179° |
| 2026-04-24 13:32 | 40.71451 | -121.06389 | 30994 ft | 455 kts | 180° |
| 2026-04-24 13:33 | 40.65171 | -121.05719 | 30987 ft | 454 kts | 180° |
| 2026-04-24 13:33 | 40.59303 | -121.05094 | 30989 ft | 453 kts | 180° |
| 2026-04-24 13:34 | 40.53010 | -121.04426 | 30985 ft | 452 kts | 180° |
| 2026-04-24 13:34 | 40.46748 | -121.03763 | 30984 ft | 451 kts | 180° |
| 2026-04-24 13:35 | 40.40495 | -121.03103 | 30991 ft | 450 kts | 180° |
| 2026-04-24 13:35 | 40.34261 | -121.02446 | 30997 ft | 449 kts | 180° |
| 2026-04-24 13:36 | 40.28077 | -121.01795 | 31002 ft | 448 kts | 180° |
| 2026-04-24 13:36 | 40.21852 | -121.01142 | 30997 ft | 448 kts | 180° |
| 2026-04-24 13:37 | 40.15640 | -121.00491 | 31003 ft | 448 kts | 180° |
| 2026-04-24 13:37 | 40.09416 | -120.99840 | 31003 ft | 448 kts | 180° |
| 2026-04-24 13:38 | 40.03199 | -120.99191 | 30991 ft | 448 kts | 180° |
| 2026-04-24 13:38 | 39.97024 | -120.98548 | 30997 ft | 447 kts | 180° |
| 2026-04-24 13:39 | 39.90805 | -120.97900 | 31004 ft | 446 kts | 180° |
| 2026-04-24 13:39 | 39.85662 | -120.97366 | 31013 ft | 446 kts | 179° |
| 2026-04-24 13:40 | 39.78459 | -120.96627 | 30994 ft | 446 kts | 179° |
| 2026-04-24 13:40 | 39.72265 | -120.95981 | 30985 ft | 446 kts | 179° |
| 2026-04-24 13:41 | 39.67117 | -120.95446 | 30984 ft | 446 kts | 180° |
| 2026-04-24 13:41 | 39.60924 | -120.94809 | 30969 ft | 446 kts | 179° |
| 2026-04-24 13:42 | 39.54738 | -120.94173 | 30973 ft | 446 kts | 179° |
| 2026-04-24 13:42 | 39.48551 | -120.93536 | 30986 ft | 446 kts | 179° |
| 2026-04-24 13:43 | 39.42356 | -120.92902 | 30980 ft | 446 kts | 179° |
| 2026-04-24 13:43 | 39.36191 | -120.92272 | 31023 ft | 447 kts | 179° |
| 2026-04-24 13:44 | 39.29990 | -120.91639 | 31037 ft | 447 kts | 179° |
| 2026-04-24 13:44 | 39.23781 | -120.91007 | 31026 ft | 446 kts | 179° |
| 2026-04-24 13:45 | 39.17595 | -120.90377 | 31028 ft | 445 kts | 179° |
| 2026-04-24 13:45 | 39.11447 | -120.89753 | 31040 ft | 445 kts | 179° |
| 2026-04-24 13:46 | 39.05268 | -120.89131 | 31010 ft | 445 kts | 179° |
| 2026-04-24 13:46 | 38.99091 | -120.88511 | 31001 ft | 444 kts | 179° |
| 2026-04-24 13:47 | 38.92930 | -120.87895 | 31009 ft | 443 kts | 178° |
| 2026-04-24 13:47 | 38.86784 | -120.87240 | 31013 ft | 442 kts | 175° |
| 2026-04-24 13:48 | 38.80888 | -120.84957 | 31025 ft | 448 kts | 156° |
| 2026-04-24 13:48 | 38.75454 | -120.81081 | 31029 ft | 449 kts | 153° |
| 2026-04-24 13:49 | 38.70039 | -120.77092 | 31016 ft | 449 kts | 153° |
| 2026-04-24 13:49 | 38.64602 | -120.73148 | 31005 ft | 448 kts | 153° |
| 2026-04-24 13:50 | 38.59155 | -120.69250 | 31004 ft | 448 kts | 153° |
| 2026-04-24 13:50 | 38.53721 | -120.65384 | 31008 ft | 447 kts | 153° |
| 2026-04-24 13:51 | 38.48283 | -120.61523 | 31012 ft | 448 kts | 153° |
| 2026-04-24 13:51 | 38.42822 | -120.57653 | 31008 ft | 448 kts | 153° |
| 2026-04-24 13:52 | 38.37378 | -120.53801 | 31005 ft | 448 kts | 153° |
| 2026-04-24 13:52 | 38.31914 | -120.49940 | 31020 ft | 448 kts | 153° |
| 2026-04-24 13:53 | 38.26472 | -120.46099 | 31021 ft | 449 kts | 153° |
| 2026-04-24 13:53 | 38.21034 | -120.42270 | 31008 ft | 449 kts | 153° |
| 2026-04-24 13:54 | 38.15568 | -120.38428 | 31011 ft | 449 kts | 153° |
| 2026-04-24 13:54 | 38.10101 | -120.34590 | 31025 ft | 450 kts | 153° |
| 2026-04-24 13:55 | 38.04591 | -120.30730 | 31018 ft | 450 kts | 153° |
| 2026-04-24 13:55 | 37.99109 | -120.26897 | 31024 ft | 450 kts | 153° |
| 2026-04-24 13:56 | 37.93613 | -120.23061 | 31029 ft | 450 kts | 153° |
| 2026-04-24 13:56 | 37.88162 | -120.19261 | 31027 ft | 450 kts | 153° |
| 2026-04-24 13:57 | 37.82671 | -120.15441 | 31031 ft | 449 kts | 154° |
| 2026-04-24 13:57 | 37.77178 | -120.11626 | 31016 ft | 449 kts | 154° |
| 2026-04-24 13:58 | 37.71740 | -120.07854 | 31015 ft | 448 kts | 154° |
| 2026-04-24 13:58 | 37.66270 | -120.04068 | 31022 ft | 448 kts | 154° |
| 2026-04-24 13:59 | 37.60819 | -120.00297 | 31022 ft | 448 kts | 154° |
| 2026-04-24 13:59 | 37.55358 | -119.96528 | 31019 ft | 447 kts | 154° |
| 2026-04-24 14:00 | 37.49888 | -119.92766 | 31016 ft | 447 kts | 154° |
| 2026-04-24 14:00 | 37.44442 | -119.89023 | 31014 ft | 446 kts | 154° |
| 2026-04-24 14:01 | 37.39002 | -119.85288 | 31024 ft | 445 kts | 154° |
| 2026-04-24 14:01 | 37.33566 | -119.81563 | 31009 ft | 446 kts | 154° |
| 2026-04-24 14:02 | 37.28119 | -119.77837 | 31013 ft | 446 kts | 155° |
| 2026-04-24 14:02 | 37.22654 | -119.74105 | 31019 ft | 446 kts | 154° |
| 2026-04-24 14:03 | 37.17200 | -119.70386 | 31000 ft | 447 kts | 155° |
| 2026-04-24 14:03 | 37.11743 | -119.66672 | 31002 ft | 447 kts | 155° |
| 2026-04-24 14:04 | 37.06270 | -119.62953 | 31007 ft | 447 kts | 155° |
| 2026-04-24 14:04 | 37.00811 | -119.59246 | 31006 ft | 448 kts | 155° |
| 2026-04-24 14:05 | 36.95349 | -119.55548 | 31002 ft | 448 kts | 155° |
| 2026-04-24 14:05 | 36.89855 | -119.51835 | 30999 ft | 448 kts | 155° |
| 2026-04-24 14:06 | 36.84346 | -119.48116 | 31007 ft | 449 kts | 155° |
| 2026-04-24 14:06 | 36.78849 | -119.44412 | 30998 ft | 449 kts | 155° |
| 2026-04-24 14:07 | 36.73395 | -119.40742 | 31008 ft | 449 kts | 155° |
| 2026-04-24 14:07 | 36.67880 | -119.37038 | 31000 ft | 449 kts | 155° |
| 2026-04-24 14:08 | 36.62387 | -119.33354 | 30990 ft | 449 kts | 156° |
| 2026-04-24 14:08 | 36.56867 | -119.29659 | 31003 ft | 449 kts | 156° |
| 2026-04-24 14:09 | 36.51382 | -119.25993 | 31012 ft | 449 kts | 156° |
| 2026-04-24 14:09 | 36.45880 | -119.22322 | 30993 ft | 449 kts | 157° |
| 2026-04-24 14:10 | 36.40360 | -119.18646 | 31007 ft | 449 kts | 156° |
| 2026-04-24 14:10 | 36.34844 | -119.14979 | 31015 ft | 449 kts | 156° |
| 2026-04-24 14:11 | 36.29341 | -119.11327 | 31010 ft | 450 kts | 157° |
| 2026-04-24 14:12 | 36.21072 | -119.05857 | 31019 ft | 450 kts | 157° |
| 2026-04-24 14:12 | 36.15507 | -119.02178 | 31014 ft | 451 kts | 158° |
| 2026-04-24 14:13 | 36.09732 | -118.99657 | 31021 ft | 437 kts | 173° |
| 2026-04-24 14:13 | 36.03760 | -118.98107 | 31005 ft | 437 kts | 175° |
| 2026-04-24 14:14 | 35.97825 | -118.96574 | 31007 ft | 437 kts | 175° |
| 2026-04-24 14:14 | 35.88912 | -118.94227 | 31012 ft | 438 kts | 174° |
| 2026-04-24 14:15 | 35.82931 | -118.92635 | 31004 ft | 438 kts | 175° |
| 2026-04-24 14:15 | 35.76968 | -118.91050 | 31005 ft | 438 kts | 175° |
| 2026-04-24 14:16 | 35.70983 | -118.89464 | 31012 ft | 439 kts | 175° |
| 2026-04-24 14:17 | 35.62068 | -118.87108 | 31010 ft | 439 kts | 176° |
| 2026-04-24 14:17 | 35.53097 | -118.84740 | 31006 ft | 439 kts | 176° |
| 2026-04-24 14:18 | 35.47145 | -118.83174 | 31019 ft | 438 kts | 176° |
| 2026-04-24 14:18 | 35.41170 | -118.81600 | 30992 ft | 438 kts | 177° |
| 2026-04-24 14:19 | 35.35225 | -118.80045 | 31006 ft | 436 kts | 176° |
| 2026-04-24 14:19 | 35.29308 | -118.78491 | 31000 ft | 436 kts | 176° |
| 2026-04-24 14:20 | 35.23372 | -118.76938 | 30989 ft | 436 kts | 177° |
| 2026-04-24 14:20 | 35.17434 | -118.75386 | 30989 ft | 437 kts | 177° |
| 2026-04-24 14:21 | 35.11480 | -118.73834 | 31012 ft | 437 kts | 177° |
| 2026-04-24 14:21 | 35.05527 | -118.72283 | 31008 ft | 438 kts | 177° |
| 2026-04-24 14:22 | 34.99572 | -118.70734 | 31012 ft | 438 kts | 177° |
| 2026-04-24 14:23 | 34.90628 | -118.68379 | 30975 ft | 441 kts | 176° |
| 2026-04-24 14:23 | 34.84640 | -118.66847 | 30972 ft | 438 kts | 177° |
| 2026-04-24 14:24 | 34.78685 | -118.65327 | 30961 ft | 438 kts | 177° |
| 2026-04-24 14:24 | 34.72709 | -118.63786 | 30967 ft | 439 kts | 177° |
| 2026-04-24 14:25 | 34.67740 | -118.62519 | 30969 ft | 440 kts | 176° |
| 2026-04-24 14:25 | 34.60731 | -118.60664 | 30959 ft | 445 kts | 173° |
| 2026-04-24 14:25 | 34.57781 | -118.59380 | 30975 ft | 456 kts | 163° |
| 2026-04-24 14:26 | 34.54957 | -118.57520 | 30954 ft | 465 kts | 158° |
| 2026-04-24 14:26 | 34.49435 | -118.53487 | 30967 ft | 465 kts | 157° |
| 2026-04-24 14:27 | 34.43884 | -118.49467 | 30974 ft | 464 kts | 158° |
| 2026-04-24 14:27 | 34.38341 | -118.45472 | 30975 ft | 462 kts | 158° |
| 2026-04-24 14:28 | 34.32805 | -118.41507 | 30967 ft | 463 kts | 158° |
| 2026-04-24 14:28 | 34.27284 | -118.37588 | 30962 ft | 462 kts | 158° |
| 2026-04-24 14:29 | 34.21733 | -118.33682 | 30994 ft | 461 kts | 158° |
| 2026-04-24 14:29 | 34.17086 | -118.30407 | 31000 ft | 462 kts | 158° |
| 2026-04-24 14:30 | 34.11535 | -118.26488 | 30996 ft | 461 kts | 157° |
| 2026-04-24 14:30 | 34.06018 | -118.22637 | 30999 ft | 461 kts | 158° |
| 2026-04-24 14:31 | 34.00460 | -118.18716 | 31000 ft | 461 kts | 157° |
| 2026-04-24 14:31 | 33.94950 | -118.14829 | 30263 ft | 462 kts | 157° |
| 2026-04-24 14:31 | 33.92192 | -118.12896 | 29771 ft | 456 kts | 157° |
| 2026-04-24 14:32 | 33.89454 | -118.10980 | 29220 ft | 451 kts | 157° |
| 2026-04-24 14:32 | 33.86764 | -118.09094 | 28667 ft | 446 kts | 157° |
| 2026-04-24 14:32 | 33.84128 | -118.07252 | 28094 ft | 441 kts | 157° |
| 2026-04-24 14:32 | 33.81469 | -118.05450 | 27610 ft | 435 kts | 158° |
| 2026-04-24 14:33 | 33.78837 | -118.03705 | 27102 ft | 431 kts | 158° |
| 2026-04-24 14:33 | 33.76212 | -118.01980 | 26604 ft | 427 kts | 158° |
| 2026-04-24 14:33 | 33.73614 | -118.00275 | 26101 ft | 424 kts | 158° |
| 2026-04-24 14:33 | 33.71033 | -117.98578 | 25625 ft | 420 kts | 158° |
| 2026-04-24 14:34 | 33.68485 | -117.96900 | 25142 ft | 417 kts | 158° |
| 2026-04-24 14:34 | 33.65951 | -117.95231 | 24666 ft | 413 kts | 158° |
| 2026-04-24 14:34 | 33.63435 | -117.93576 | 24185 ft | 411 kts | 158° |
| 2026-04-24 14:34 | 33.60939 | -117.91935 | 23708 ft | 408 kts | 158° |
| 2026-04-24 14:35 | 33.58448 | -117.90297 | 23153 ft | 406 kts | 158° |
| 2026-04-24 14:35 | 33.55978 | -117.88669 | 22639 ft | 403 kts | 157° |
| 2026-04-24 14:35 | 33.53570 | -117.87072 | 22170 ft | 399 kts | 156° |
| 2026-04-24 14:35 | 33.51168 | -117.85437 | 21711 ft | 395 kts | 156° |
| 2026-04-24 14:36 | 33.48780 | -117.83800 | 21237 ft | 392 kts | 156° |
| 2026-04-24 14:36 | 33.46417 | -117.82183 | 20778 ft | 389 kts | 156° |
| 2026-04-24 14:36 | 33.44091 | -117.80528 | 20297 ft | 389 kts | 151° |
| 2026-04-24 14:36 | 33.41980 | -117.78477 | 19850 ft | 392 kts | 143° |
| 2026-04-24 14:37 | 33.39969 | -117.76287 | 19410 ft | 390 kts | 142° |
| 2026-04-24 14:37 | 33.37973 | -117.74097 | 18962 ft | 388 kts | 142° |
| 2026-04-24 14:37 | 33.35975 | -117.71923 | 18499 ft | 387 kts | 142° |
| 2026-04-24 14:37 | 33.34006 | -117.69802 | 18012 ft | 385 kts | 142° |
| 2026-04-24 14:38 | 33.32014 | -117.67672 | 17522 ft | 383 kts | 143° |
| 2026-04-24 14:38 | 33.30031 | -117.65561 | 17055 ft | 380 kts | 142° |
| 2026-04-24 14:38 | 33.28064 | -117.63468 | 16585 ft | 378 kts | 142° |
| 2026-04-24 14:38 | 33.26103 | -117.61378 | 16127 ft | 375 kts | 142° |
| 2026-04-24 14:39 | 33.24161 | -117.59316 | 15673 ft | 372 kts | 142° |
| 2026-04-24 14:39 | 33.22228 | -117.57276 | 15234 ft | 370 kts | 142° |
| 2026-04-24 14:39 | 33.20304 | -117.55255 | 14794 ft | 367 kts | 142° |
| 2026-04-24 14:39 | 33.18390 | -117.53245 | 14358 ft | 365 kts | 142° |
| 2026-04-24 14:40 | 33.16513 | -117.51272 | 13924 ft | 363 kts | 142° |
| 2026-04-24 14:40 | 33.14623 | -117.49284 | 13449 ft | 361 kts | 142° |
| 2026-04-24 14:40 | 33.12703 | -117.47383 | 12980 ft | 356 kts | 147° |
| 2026-04-24 14:40 | 33.10683 | -117.45708 | 12570 ft | 352 kts | 149° |
| 2026-04-24 14:41 | 33.08665 | -117.44084 | 12117 ft | 347 kts | 148° |
| 2026-04-24 14:41 | 33.06688 | -117.42468 | 11680 ft | 340 kts | 148° |
| 2026-04-24 14:41 | 33.04758 | -117.40870 | 11249 ft | 334 kts | 147° |
| 2026-04-24 14:41 | 33.02875 | -117.39295 | 10877 ft | 328 kts | 147° |
| 2026-04-24 14:42 | 33.01023 | -117.37737 | 10487 ft | 323 kts | 146° |
| 2026-04-24 14:42 | 32.99224 | -117.36225 | 10352 ft | 311 kts | 146° |
| 2026-04-24 14:42 | 32.97479 | -117.34762 | 10203 ft | 303 kts | 146° |
| 2026-04-24 14:42 | 32.95783 | -117.33340 | 10071 ft | 293 kts | 146° |
| 2026-04-24 14:43 | 32.94140 | -117.31962 | 9878 ft | 287 kts | 146° |
| 2026-04-24 14:43 | 32.92534 | -117.30614 | 9777 ft | 277 kts | 146° |
| 2026-04-24 14:43 | 32.90989 | -117.29324 | 9500 ft | 274 kts | 146° |
| 2026-04-24 14:43 | 32.89425 | -117.28025 | 9210 ft | 273 kts | 146° |
| 2026-04-24 14:44 | 32.87867 | -117.26732 | 8903 ft | 272 kts | 146° |
| 2026-04-24 14:44 | 32.86316 | -117.25445 | 8598 ft | 271 kts | 146° |
| 2026-04-24 14:44 | 32.84767 | -117.24157 | 8313 ft | 270 kts | 146° |
| 2026-04-24 14:44 | 32.83245 | -117.22891 | 7983 ft | 271 kts | 146° |
| 2026-04-24 14:45 | 32.81733 | -117.21542 | 7670 ft | 272 kts | 134° |
| 2026-04-24 14:45 | 32.80788 | -117.19586 | 7356 ft | 274 kts | 107° |
| 2026-04-24 14:45 | 32.80288 | -117.17406 | 7036 ft | 274 kts | 104° |
| 2026-04-24 14:45 | 32.79826 | -117.15206 | 6729 ft | 275 kts | 104° |
| 2026-04-24 14:46 | 32.79355 | -117.13003 | 6415 ft | 275 kts | 104° |
| 2026-04-24 14:46 | 32.78878 | -117.10824 | 6255 ft | 269 kts | 104° |
| 2026-04-24 14:46 | 32.78409 | -117.08706 | 6108 ft | 262 kts | 104° |
| 2026-04-24 14:46 | 32.77958 | -117.06670 | 5971 ft | 254 kts | 104° |
| 2026-04-24 14:47 | 32.77485 | -117.04670 | 5776 ft | 246 kts | 105° |
| 2026-04-24 14:47 | 32.77022 | -117.02778 | 5623 ft | 231 kts | 105° |
| 2026-04-24 14:47 | 32.76589 | -117.00997 | 5413 ft | 218 kts | 105° |
| 2026-04-24 14:47 | 32.76177 | -116.99297 | 5250 ft | 212 kts | 105° |
| 2026-04-24 14:48 | 32.75660 | -116.97671 | 5014 ft | 209 kts | 126° |
| 2026-04-24 14:48 | 32.74553 | -116.96707 | 4841 ft | 193 kts | 154° |
| 2026-04-24 14:48 | 32.73618 | -116.95650 | 4561 ft | 191 kts | 116° |
| 2026-04-24 14:48 | 32.72760 | -116.94520 | 4226 ft | 190 kts | 155° |
| 2026-04-24 14:49 | 32.71526 | -116.94278 | 4108 ft | 173 kts | 191° |
| 2026-04-24 14:49 | 32.70534 | -116.94984 | 4081 ft | 171 kts | 237° |
| 2026-04-24 14:49 | 32.70067 | -116.96332 | 3972 ft | 186 kts | 246° |
| 2026-04-24 14:49 | 32.69204 | -116.97437 | 3721 ft | 185 kts | 213° |
| 2026-04-24 14:50 | 32.68402 | -116.98567 | 3464 ft | 176 kts | 256° |
| 2026-04-24 14:50 | 32.68583 | -116.99945 | 3387 ft | 178 kts | 293° |
| 2026-04-24 14:50 | 32.69057 | -117.01353 | 3258 ft | 187 kts | 285° |
| 2026-04-24 14:50 | 32.69443 | -117.02843 | 3049 ft | 195 kts | 283° |
| 2026-04-24 14:51 | 32.69822 | -117.04388 | 2753 ft | 192 kts | 283° |
| 2026-04-24 14:51 | 32.70180 | -117.05863 | 2492 ft | 179 kts | 282° |
| 2026-04-24 14:51 | 32.70515 | -117.07249 | 2189 ft | 168 kts | 282° |
| 2026-04-24 14:51 | 32.70820 | -117.08511 | 1929 ft | 153 kts | 282° |
| 2026-04-24 14:52 | 32.71099 | -117.09688 | 1730 ft | 148 kts | 281° |
| 2026-04-24 14:52 | 32.71384 | -117.10860 | 1496 ft | 147 kts | 281° |
| 2026-04-24 14:52 | 32.71664 | -117.12016 | 1280 ft | 147 kts | 282° |
| 2026-04-24 14:52 | 32.71950 | -117.13186 | 1044 ft | 147 kts | 282° |
| 2026-04-24 14:53 | 32.72228 | -117.14336 | 816 ft | 143 kts | 281° |
| 2026-04-24 14:53 | 32.72506 | -117.15495 | 622 ft | 148 kts | 285° |
| 2026-04-24 14:53 | 32.72796 | -117.16676 | 351 ft | 149 kts | 285° |
| 2026-04-24 14:53 | 32.73085 | -117.17844 | 98 ft | 149 kts | 285° |
| 2026-04-24 14:54 | 32.73357 | -117.18972 | 22 ft | 115 kts | 286° |
| 2026-04-24 14:54 | 32.73495 | -117.19538 | 25 ft | 56 kts | 286° |
| 2026-04-24 14:54 | 32.73534 | -117.19752 | 24 ft | 11 kts | 252° |
| 2026-04-24 14:54 | 32.73514 | -117.19822 | 25 ft | 8 kts | 251° |
| 2026-04-24 14:55 | 32.73503 | -117.19862 | 25 ft | 7 kts | 251° |
| 2026-04-24 14:55 | 32.73493 | -117.19895 | 22 ft | 0 kts | 251° |
| 2026-04-24 14:56 | 32.73488 | -117.19912 | 13 ft | 4 kts | 250° |
| 2026-04-24 14:57 | 32.73465 | -117.19948 | 22 ft | 7 kts | 211° |
| 2026-04-24 14:57 | 32.73438 | -117.19959 | 23 ft | 0 kts | 194° |
| 2026-04-24 14:57 | 32.73436 | -117.19959 | 23 ft | 1 kts | 194° |
| 2026-04-24 14:58 | 32.73417 | -117.19971 | 22 ft | 5 kts | 220° |
| 2026-04-24 14:58 | 32.73402 | -117.20011 | 23 ft | 5 kts | 254° |
| 2026-04-24 14:58 | 32.73395 | -117.20043 | 22 ft | 2 kts | 254° |
| 2026-04-24 14:58 | 32.73394 | -117.20049 | 22 ft | 0 kts | 254° |